Flight Track Log - Related Links

Times and Time Zones

All times are in EDT time to prevent confusion due to time zone crossing. See the AAL1326 flight status page for this flight to view local times or setup timezone preferences in your user account.


Time Position Orientation Groundspeed Altitude Reporting Facility
EDT Latitude Longitude Course Direction KTS MPH feet Rate Location/Type
Thu 09:31:28 PM 41.9833 -87.8667 180° South 168 193 1,900  Level Chicago TRACON
Thu 09:33:00 PM 41.6609 -87.7131 166° South  Level Estimated
Thu 09:33:28 PM 41.8833 -87.7500 139° Southeast 245 282 5,000  Level Chicago TRACON
Thu 09:34:00 PM 41.5539 -87.6489 167° South  Level Estimated
Thu 09:35:00 PM 41.4468 -87.5850 180° South  Level Estimated
Thu 09:35:50 PM 41.7353 -87.7244 173° South 265 305 9,900  Level Chicago Center
Thu 09:36:00 PM 41.3397 -87.5213 180° South  Level Estimated
Thu 09:36:51 PM 41.6569 -87.7258 181° South 277 319 12,800  Level Chicago Center
Thu 09:37:53 PM 41.5589 -87.7208 178° South 292 336 15,900 2,710 Climbing Chicago Center
Thu 09:38:55 PM 41.4750 -87.7017 170° South 301 346 18,400 2,177 Climbing Chicago Center
Thu 09:39:57 PM 41.3894 -87.6839 171° South 306 352 20,400 1,742 Climbing Chicago Center
Thu 09:40:59 PM 41.2961 -87.6639 171° South 326 375 22,000 1,113 Climbing Chicago Center
Thu 09:42:01 PM 41.1917 -87.6419 171° South 358 412 22,700 1,366 Climbing Chicago Center
Thu 09:43:02 PM 41.0806 -87.6192 171° South 383 441 24,800 1,610 Climbing Chicago Center
Thu 09:44:04 PM 40.9719 -87.5933 170° South 393 452 26,000 1,210 Climbing Chicago Center
Thu 09:45:06 PM 40.8361 -87.5314 161° South 424 488 27,300 1,306 Climbing Chicago Center
Thu 09:46:08 PM 40.7208 -87.4831 162° South 433 498 28,700 1,597 Climbing Chicago Center
Thu 09:47:10 PM 40.6050 -87.4353 163° South 436 502 30,600 1,742 Climbing Chicago Center
Thu 09:48:12 PM 40.4919 -87.3872 162° South 431 496 32,300 1,452 Climbing Chicago Center
Thu 09:49:14 PM 40.3767 -87.3403 163° South 426 490 33,600 1,113 Climbing Chicago Center
Thu 09:50:16 PM 40.2636 -87.2950 163° South 426 490 34,600 976 Climbing Chicago Center
Thu 09:51:17 PM 40.1497 -87.2478 162° South 429 494 35,600 971 Climbing Chicago Center
Thu 09:52:01 PM 40.0558 -87.2111 163° South 431 496 36,300 792 Climbing Indianapolis Center
Thu 09:53:03 PM 39.9408 -87.1656 163° South 433 498 37,000 341 Climbing Indianapolis Center
Thu 09:54:04 PM 39.8272 -87.1181 162° South 432 497 37,000  Level Indianapolis Center
Thu 09:55:06 PM 39.6911 -87.0631 163° South 432 497 37,000  Level Indianapolis Center
Thu 09:56:07 PM 39.5769 -87.0167 163° South 432 497 37,000  Level Indianapolis Center
Thu 09:57:08 PM 39.4617 -86.9725 164° South 435 501 37,000  Level Indianapolis Center
Thu 09:58:10 PM 39.3469 -86.9256 162° South 435 501 37,000  Level Indianapolis Center
Thu 09:59:11 PM 39.2331 -86.8803 163° South 433 498 37,000  Level Indianapolis Center
Thu 10:00:12 PM 39.1175 -86.8206 158° South 436 502 37,000  Level Indianapolis Center
Thu 10:01:14 PM 39.0094 -86.7456 152° Southeast 438 504 37,000  Level Indianapolis Center
Thu 10:02:15 PM 38.8992 -86.6722 153° Southeast 442 509 37,000  Level Indianapolis Center
Thu 10:03:16 PM 38.7883 -86.5961 152° Southeast 447 514 37,000  Level Indianapolis Center
Thu 10:04:17 PM 38.6775 -86.5225 153° Southeast 444 511 37,000  Level Indianapolis Center
Thu 10:05:18 PM 38.5658 -86.4481 152° Southeast 448 516 37,000  Level Indianapolis Center
Thu 10:06:20 PM 38.4564 -86.3739 152° Southeast 443 510 37,000  Level Indianapolis Center
Thu 10:07:21 PM 38.3464 -86.3017 153° Southeast 441 507 37,000  Level Indianapolis Center
Thu 10:08:22 PM 38.2131 -86.2125 152° Southeast 445 512 37,000  Level Indianapolis Center
Thu 10:09:24 PM 38.1025 -86.1403 153° Southeast 445 512 37,000  Level Indianapolis Center
Thu 10:10:25 PM 37.9922 -86.0681 153° Southeast 443 510 37,000  Level Indianapolis Center
Thu 10:11:26 PM 37.8825 -85.9958 153° Southeast 441 507 37,000  Level Indianapolis Center
Thu 10:12:27 PM 37.7725 -85.9253 153° Southeast 441 507 37,000  Level Indianapolis Center
Thu 10:13:29 PM 37.6622 -85.8539 153° Southeast 442 509 37,000  Level Indianapolis Center
Thu 10:14:30 PM 37.5522 -85.7825 153° Southeast 442 509 37,000  Level Indianapolis Center
Thu 10:15:31 PM 37.4408 -85.7097 153° Southeast 446 513 37,000  Level Indianapolis Center
Thu 10:16:33 PM 37.3306 -85.6386 153° Southeast 445 512 37,000  Level Indianapolis Center
Thu 10:17:34 PM 37.2233 -85.5689 153° Southeast 436 502 37,000  Level Indianapolis Center
Thu 10:18:35 PM 37.1106 -85.4969 153° Southeast 437 503 37,000  Level Indianapolis Center
Thu 10:19:36 PM 36.9850 -85.4172 153° Southeast 435 501 37,000  Level Indianapolis Center
Thu 10:20:37 PM 36.8706 -85.3742 163° South 430 495 37,000  Level Indianapolis Center
Thu 10:21:39 PM 36.7533 -85.3397 167° South 432 497 37,000  Level Indianapolis Center
Thu 10:22:40 PM 36.6378 -85.3039 166° South 429 494 37,000  Level Indianapolis Center
Thu 10:23:41 PM 36.5214 -85.2694 167° South 429 494 37,000  Level Indianapolis Center
Thu 10:24:43 PM 36.4042 -85.2342 166° South 432 497 37,000  Level Indianapolis Center
Thu 10:25:44 PM 36.2847 -85.1986 167° South 439 505 37,000  Level Indianapolis Center
Thu 10:26:45 PM 36.1661 -85.1631 166° South 438 504 37,000  Level Indianapolis Center
Thu 10:27:49 PM 36.0222 -85.1247 168° South 438 504 37,000  Level Atlanta Center
Thu 10:28:49 PM 35.9036 -85.0950 169° South 438 504 37,000  Level Atlanta Center
Thu 10:29:49 PM 35.7808 -85.0550 165° South 448 516 37,000  Level Atlanta Center
Thu 10:30:49 PM 35.6600 -85.0203 167° South 448 516 37,000  Level Atlanta Center
Thu 10:31:49 PM 35.5414 -84.9831 166° South 448 516 37,000  Level Atlanta Center
Thu 10:32:49 PM 35.4228 -84.9486 167° South 448 516 37,000  Level Atlanta Center
Thu 10:33:49 PM 35.3042 -84.9142 167° South 448 516 37,000  Level Atlanta Center
Thu 10:34:49 PM 35.1856 -84.8775 166° South 448 516 37,000  Level Atlanta Center
Thu 10:35:49 PM 35.0647 -84.8431 167° South 448 516 37,000  Level Atlanta Center
Thu 10:36:49 PM 34.9481 -84.8092 167° South 448 516 37,000  Level Atlanta Center
Thu 10:37:49 PM 34.8272 -84.7775 168° South 448 516 37,000  Level Atlanta Center
Thu 10:38:49 PM 34.7064 -84.7386 165° South 448 516 37,000  Level Atlanta Center
Thu 10:39:49 PM 34.5897 -84.7075 168° South 443 510 37,000  Level Atlanta Center
Thu 10:40:49 PM 34.4689 -84.6711 166° South 443 510 37,000  Level Atlanta Center
Thu 10:41:49 PM 34.3458 -84.6375 167° South 448 516 37,000  Level Atlanta Center
Thu 10:42:49 PM 34.2272 -84.6042 167° South 448 516 37,000  Level Atlanta Center
Thu 10:43:49 PM 34.1019 -84.5681 167° South 453 521 37,000  Level Atlanta Center
Thu 10:44:49 PM 33.9811 -84.5372 168° South 453 521 37,000  Level Atlanta Center
Thu 10:45:49 PM 33.8706 -84.5067 167° South 453 521 37,000  Level Atlanta Center
Thu 10:46:49 PM 33.7497 -84.4711 166° South 453 521 37,000  Level Atlanta Center
Thu 10:47:49 PM 33.6286 -84.4381 167° South 446 513 37,000  Level Atlanta Center
Thu 10:48:49 PM 33.4975 -84.3825 161° South 453 521 37,000  Level Atlanta Center
Thu 10:49:49 PM 33.3786 -84.3322 161° South 453 521 37,000  Level Atlanta Center
Thu 10:50:49 PM 33.2597 -84.2847 162° South 458 527 37,000  Level Atlanta Center
Thu 10:51:49 PM 33.1386 -84.2347 161° South 458 527 37,000  Level Atlanta Center
Thu 10:52:49 PM 33.0197 -84.1850 161° South 453 521 37,000  Level Atlanta Center
Thu 10:53:49 PM 32.9008 -84.1353 161° South 453 521 37,000  Level Atlanta Center
Thu 10:54:49 PM 32.7839 -84.0858 160° South 453 521 37,000  Level Atlanta Center
Thu 10:55:49 PM 32.6650 -84.0364 161° South 453 521 37,000  Level Atlanta Center
Thu 10:56:49 PM 32.5439 -83.9894 162° South 448 516 37,000  Level Atlanta Center
Thu 10:57:49 PM 32.4269 -83.9403 160° South 448 516 37,000  Level Atlanta Center
Thu 10:58:49 PM 32.3081 -83.8914 161° South 448 516 37,000  Level Atlanta Center
Thu 11:00:44 PM 32.0986 -83.8050 161° South 444 511 37,000  Level Jacksonville Center
Thu 11:01:44 PM 31.9861 -83.7597 161° South 444 511 37,000 -50 Level Jacksonville Center
Thu 11:02:44 PM 31.8592 -83.7094 161° South 439 505 36,900  Descending Jacksonville Center
Thu 11:03:44 PM 31.7444 -83.6644 162° South 439 505 37,000 50 Climbing Jacksonville Center
Thu 11:04:44 PM 31.6278 -83.6269 165° South 439 505 37,000  Level Jacksonville Center
Thu 11:05:44 PM 31.5047 -83.5919 166° South 446 513 37,000  Level Jacksonville Center
Thu 11:06:44 PM 31.3922 -83.5569 165° South 430 495 37,000  Level Jacksonville Center
Thu 11:07:44 PM 31.2797 -83.5222 165° South 424 488 37,000  Level Jacksonville Center
Thu 11:08:44 PM 31.1672 -83.4875 165° South 424 488 37,000  Level Jacksonville Center
Thu 11:09:44 PM 31.0544 -83.4503 164° South 424 488 37,000  Level Jacksonville Center
Thu 11:10:44 PM 30.9419 -83.4158 165° South 419 482 37,000  Level Jacksonville Center
Thu 11:11:44 PM 30.8294 -83.3814 165° South 419 482 37,000 -50 Level Jacksonville Center
Thu 11:12:44 PM 30.7208 -83.3444 164° South 411 473 36,900 -50 Descending Jacksonville Center
Thu 11:13:44 PM 30.6061 -83.3100 166° South 416 479 36,900 50 Level Jacksonville Center
Thu 11:14:44 PM 30.4894 -83.2758 166° South 416 479 37,000  Climbing Jacksonville Center
Thu 11:15:44 PM 30.3767 -83.2392 164° South 416 479 36,900 -50 Descending Jacksonville Center
Thu 11:16:44 PM 30.2619 -83.2053 166° South 422 486 36,900 50 Level Jacksonville Center
Thu 11:17:44 PM 30.1472 -83.1689 165° South 427 491 37,000 50 Climbing Jacksonville Center
Thu 11:18:44 PM 30.0303 -83.1350 166° South 427 491 37,000  Level Jacksonville Center
Thu 11:19:44 PM 29.9094 -83.0986 165° South 443 510 37,000  Level Jacksonville Center
Thu 11:20:44 PM 29.7925 -83.0625 165° South 437 503 37,000 -50 Level Jacksonville Center
Thu 11:21:44 PM 29.6756 -83.0264 165° South 432 497 36,900 -50 Descending Jacksonville Center
Thu 11:22:44 PM 29.5586 -82.9928 166° South 436 502 36,900 50 Level Jacksonville Center
Thu 11:23:44 PM 29.4544 -82.9594 164° South 431 496 37,000  Climbing Jacksonville Center
Thu 11:24:44 PM 29.3375 -82.9236 165° South 431 496 36,900  Descending Jacksonville Center
Thu 11:25:44 PM 29.2247 -82.8903 166° South 431 496 37,000 50 Climbing Jacksonville Center
Thu 11:26:44 PM 29.1058 -82.8544 165° South 431 496 37,000  Level Jacksonville Center
Thu 11:27:44 PM 28.9931 -82.8189 165° South 431 496 37,000  Level Jacksonville Center
Thu 11:28:44 PM 28.8742 -82.7858 166° South 431 496 37,000  Level Jacksonville Center
Thu 11:30:33 PM 28.6503 -82.7169 165° South 436 502 37,000 -36 Level Miami Center
Thu 11:31:33 PM 28.5369 -82.6875 167° South 431 496 36,900  Descending Miami Center
Thu 11:32:33 PM 28.4214 -82.6531 165° South 426 490 37,000  Climbing Miami Center
Thu 11:33:33 PM 28.3103 -82.6144 163° South 426 490 36,900  Descending Miami Center
Thu 11:34:33 PM 28.1908 -82.5800 166° South 432 497 37,000 50 Climbing Miami Center
Thu 11:35:33 PM 28.0711 -82.5458 166° South 440 506 37,000  Level Miami Center
Thu 11:36:33 PM 27.9517 -82.5092 165° South 445 512 37,000  Level Miami Center
Thu 11:37:33 PM 27.8303 -82.4656 162° South 450 518 37,000 -100 Level Miami Center
Thu 11:38:33 PM 27.7275 -82.4253 161° South 445 512 36,800 -550 Descending Miami Center
Thu 11:39:33 PM 27.6103 -82.3844 163° South 445 512 35,900 -1,000 Descending Miami Center
Thu 11:40:33 PM 27.4764 -82.3336 161° South 457 526 34,800 -1,000 Descending Miami Center
Thu 11:41:33 PM 27.3578 -82.2742 156° South 462 532 33,900 -950 Descending Miami Center
Thu 11:42:33 PM 27.2647 -82.1906 141° Southeast 462 532 32,900 -950 Descending Miami Center
Thu 11:43:33 PM 27.1617 -82.1017 142° Southeast 474 545 32,000 -1,000 Descending Miami Center
Thu 11:44:33 PM 27.0506 -82.0011 141° Southeast 474 545 30,900 -1,150 Descending Miami Center
Thu 11:45:33 PM 26.9553 -81.9178 142° Southeast 480 552 29,700 -1,750 Descending Miami Center
Thu 11:46:33 PM 26.8558 -81.8342 143° Southeast 474 545 27,400 -2,050 Descending Miami Center
Thu 11:47:33 PM 26.7628 -81.7467 140° Southeast 457 526 25,600 -1,950 Descending Miami Center
Thu 11:48:33 PM 26.6694 -81.6708 144° Southeast 440 506 23,500 -2,350 Descending Miami Center
Thu 11:49:33 PM 26.5869 -81.5697 132° Southeast 408 470 20,900 -2,350 Descending Miami Center
Thu 11:50:33 PM 26.5106 -81.4764 132° Southeast 402 463 18,800 -2,100 Descending Miami Center
Thu 11:51:33 PM 26.4486 -81.3950 130° Southeast 397 457 16,700 -2,100 Descending Miami Center
Thu 11:52:33 PM 26.3761 -81.3064 132° Southeast 391 450 14,600 -2,100 Descending Miami Center
Thu 11:53:33 PM 26.3097 -81.2206 131° Southeast 381 438 12,500 -2,050 Descending Miami Center
Thu 11:54:33 PM 26.2411 -81.1369 132° Southeast 370 426 10,500 -1,532 Descending Miami Center
Thu 11:55:07 PM 26.1925 -81.0867 137° Southeast 350 403 10,100 -600 Descending Miami Center
Thu 11:55:33 PM 26.1786 -81.0606 121° Southeast 351 404 9,900 -1,180 Descending Miami Center
Thu 11:56:08 PM 26.1361 -81.0153 136° Southeast 302 348 8,900 -1,500 Descending Miami Center
Thu 11:56:33 PM 26.1222 -80.9894 121° Southeast 325 374 8,400 -1,279 Descending Miami Center
Thu 11:57:09 PM 26.0903 -80.9375 124° Southeast 297 342 7,600 -1,200 Descending Miami Center
Thu 11:57:33 PM 26.0828 -80.9094 107° East 308 354 7,200 -1,377 Descending Miami Center
Thu 11:58:10 PM 26.0761 -80.8514 97° East 286 329 6,200 -1,300 Descending Miami Center
Thu 11:58:33 PM 26.0769 -80.8211 88° East 279 321 5,900 -197 Descending Miami Center
Thu 11:59:11 PM 26.0764 -80.7633 91° East 280 322 6,000 100 Climbing Miami Center
Thu 11:59:33 PM 26.0792 -80.7333 84° East 273 314 6,000  Level Miami Center
Fri 12:00:11 AM 26.0767 -80.6733 93° East 277 319 6,000  Level Miami Center
Fri 12:00:33 AM 26.0792 -80.6503 83° East 273 314 6,000  Level Miami Center
Fri 12:01:12 AM 26.0767 -80.5900 93° East 270 311 6,000 -100 Level Miami Center
Fri 12:01:33 AM 26.0792 -80.5717 81° East 268 308 5,900 -98 Descending Miami Center
Fri 12:02:13 AM 26.0764 -80.5158 93° East 234 269 5,900 -400 Level Miami Center
Fri 12:02:33 AM 26.0789 -80.4975 81° East 249 287 5,500 -1,180 Descending Miami Center
Fri 12:03:14 AM 26.0739 -80.4442 96° East 223 257 4,700 -1,100 Descending Miami Center
Fri 12:03:33 AM 26.0786 -80.4281 72° East 233 268 4,400 -985 Descending Miami Center
Fri 12:04:21 AM 26.0756 -80.3842 94° East 173 199 3,600 -944 Descending Miami Center
Fri 12:05:21 AM 26.0747 -80.3264 91° East 168 193 2,700 -900 Descending Miami Center

Login

Don't have an account? Register now (free) for customized features, flight alerts, and more!